Time;durP1;ratioP1;P1;durP2;ratioP2;P2;SDS_P1;SDS_P2;PMS_P1;PMS_P2;Temp;Humidity;BMP_temperature;BMP_pressure;BME280_temperature;BME280_humidity;BME280_pressure;Samples;Min_cycle;Max_cycle;Signal;HPM_P1;HPM_P2
2021/10/28 00:16:08;;;;;;;8.30;3.13;;;10.90;99.90;;;;;;12380611;28;20084;-86
2021/10/28 00:22:12;;;;;;;8.57;3.15;;;10.80;99.90;;;;;;12396959;28;20505;-86
2021/10/28 00:28:14;;;;;;;7.80;3.40;;;10.80;99.90;;;;;;12404616;28;20066;-85
2021/10/28 00:34:17;;;;;;;6.28;3.47;;;10.80;99.90;;;;;;12375159;28;20042;-85
2021/10/28 00:40:19;;;;;;;8.90;3.30;;;10.80;99.90;;;;;;12393452;28;20054;-86
2021/10/28 00:46:23;;;;;;;7.35;3.17;;;10.80;99.90;;;;;;12362896;28;20054;-85
2021/10/28 00:52:25;;;;;;;7.60;3.80;;;10.90;99.90;;;;;;12369423;28;20104;-85
2021/10/28 00:58:30;;;;;;;7.78;3.90;;;10.90;99.90;;;;;;12359016;28;20054;-85
2021/10/28 01:04:32;;;;;;;10.95;4.18;;;10.90;99.90;;;;;;12358774;28;20152;-85
2021/10/28 01:10:35;;;;;;;7.53;3.83;;;10.90;99.90;;;;;;12358837;28;20078;-86
2021/10/28 01:16:37;;;;;;;7.55;4.18;;;10.90;99.90;;;;;;12361294;28;20052;-86
2021/10/28 01:22:43;;;;;;;6.30;3.95;;;10.90;99.90;;;;;;12358615;28;20054;-86
2021/10/28 01:28:55;;;;;;;5.75;3.80;;;10.90;99.90;;;;;;12359815;28;20465;-85
2021/10/28 01:34:57;;;;;;;7.95;3.45;;;10.90;99.90;;;;;;12355306;28;20533;-85
2021/10/28 01:41:02;;;;;;;6.22;3.70;;;10.90;99.90;;;;;;12359146;28;20541;-85
2021/10/28 01:47:04;;;;;;;7.03;3.40;;;10.80;99.90;;;;;;12348935;28;20065;-85
2021/10/28 01:53:06;;;;;;;5.20;3.40;;;10.80;99.90;;;;;;12389141;28;20129;-85
2021/10/28 01:59:08;;;;;;;7.90;3.30;;;10.90;99.90;;;;;;12359114;28;20116;-85
2021/10/28 02:05:10;;;;;;;8.57;3.30;;;11.00;99.90;;;;;;12359355;28;20698;-85
2021/10/28 02:11:12;;;;;;;7.00;3.90;;;10.80;99.90;;;;;;12367920;28;20077;-86
2021/10/28 02:17:14;;;;;;;6.15;3.80;;;10.60;99.90;;;;;;12366517;28;20141;-85
2021/10/28 02:23:16;;;;;;;6.32;4.07;;;10.40;99.90;;;;;;12367684;28;20080;-86
2021/10/28 02:29:18;;;;;;;7.75;3.75;;;10.40;99.90;;;;;;12378249;28;20588;-85
2021/10/28 02:35:20;;;;;;;10.13;4.30;;;10.50;99.90;;;;;;12353908;28;20104;-84
2021/10/28 02:41:22;;;;;;;6.43;4.40;;;10.60;99.90;;;;;;12384126;28;20081;-86
2021/10/28 02:47:25;;;;;;;9.85;5.03;;;10.70;99.90;;;;;;12347407;28;20089;-86
2021/10/28 02:53:27;;;;;;;9.05;4.50;;;10.70;99.90;;;;;;12385453;28;20061;-86
2021/10/28 02:59:29;;;;;;;11.85;5.30;;;10.60;99.90;;;;;;12350808;28;20108;-84
2021/10/28 03:05:30;;;;;;;9.48;5.50;;;10.60;99.90;;;;;;12357460;28;20050;-86
2021/10/28 03:11:32;;;;;;;12.02;7.72;;;10.60;99.90;;;;;;12385501;28;20050;-85
2021/10/28 03:30:19;;;;;;;17.88;10.10;;;10.20;99.90;;;;;;12355947;28;20363;-84
2021/10/28 03:36:37;;;;;;;14.07;10.35;;;10.10;99.90;;;;;;12367543;28;20493;-85
2021/10/28 03:55:45;;;;;;;20.63;12.50;;;10.10;99.90;;;;;;12353565;28;20050;-86
2021/10/28 04:32:35;;;;;;;15.93;11.05;;;10.10;99.90;;;;;;12361085;28;20096;-85
2021/10/28 04:38:37;;;;;;;13.60;9.90;;;10.10;99.90;;;;;;12413172;28;20127;-84
2021/10/28 04:44:41;;;;;;;12.52;8.93;;;10.10;99.90;;;;;;12364491;28;20166;-84
2021/10/28 04:50:43;;;;;;;15.60;8.82;;;10.20;99.90;;;;;;12362523;28;20058;-85
2021/10/28 04:56:45;;;;;;;12.23;8.48;;;10.30;99.90;;;;;;12363303;28;20050;-84
2021/10/28 05:02:47;;;;;;;13.70;8.82;;;10.30;99.90;;;;;;12363855;28;20073;-84
2021/10/28 05:08:49;;;;;;;14.35;9.73;;;10.30;99.90;;;;;;12362439;28;20062;-85
2021/10/28 05:14:50;;;;;;;14.90;9.02;;;10.20;99.90;;;;;;12358350;28;20061;-84
2021/10/28 05:20:53;;;;;;;18.73;9.73;;;10.20;99.90;;;;;;12352313;28;20078;-85
2021/10/28 05:26:57;;;;;;;15.25;10.77;;;10.10;99.90;;;;;;12397312;28;20058;-85
2021/10/28 05:33:00;;;;;;;15.45;10.25;;;10.00;99.90;;;;;;12369797;28;20042;-84
2021/10/28 05:39:02;;;;;;;17.00;10.40;;;10.00;99.90;;;;;;12362882;28;20050;-84
2021/10/28 05:45:04;;;;;;;14.60;10.38;;;10.00;99.90;;;;;;12391732;28;20147;-84
2021/10/28 05:51:06;;;;;;;18.92;11.13;;;9.90;99.90;;;;;;12393198;28;20600;-84
2021/10/28 05:57:08;;;;;;;15.02;10.80;;;9.90;99.90;;;;;;12359978;28;20050;-85
2021/10/28 06:03:12;;;;;;;13.75;9.68;;;9.90;99.90;;;;;;12368659;28;20053;-84
2021/10/28 06:09:15;;;;;;;15.60;10.75;;;10.10;99.90;;;;;;12353925;28;20069;-84
2021/10/28 06:15:20;;;;;;;17.42;12.32;;;10.20;99.90;;;;;;12361515;28;20081;-84
2021/10/28 06:21:25;;;;;;;18.63;13.07;;;9.80;99.90;;;;;;12355246;28;20611;-84
2021/10/28 06:27:27;;;;;;;19.33;13.65;;;9.60;99.90;;;;;;12390118;28;20054;-84
2021/10/28 06:33:33;;;;;;;19.65;13.90;;;9.60;99.90;;;;;;12316318;28;20137;-84
2021/10/28 06:39:36;;;;;;;20.92;14.73;;;9.50;99.90;;;;;;12292703;28;20051;-84
2021/10/28 06:45:38;;;;;;;21.55;14.07;;;9.40;99.90;;;;;;12318356;28;20589;-84
2021/10/28 06:51:40;;;;;;;20.60;14.57;;;9.50;99.90;;;;;;12292653;28;20183;-84
2021/10/28 07:03:56;;;;;;;18.08;14.50;;;9.60;99.90;;;;;;12323076;28;20553;-84
2021/10/28 07:23:15;;;;;;;15.93;12.27;;;10.00;99.90;;;;;;12306088;28;20085;-84
2021/10/28 07:34:59;;;;;;;14.38;11.02;;;10.30;99.90;;;;;;12311213;28;20097;-84
2021/10/28 08:31:57;;;;;;;14.27;10.55;;;11.60;99.90;;;;;;12310811;28;20057;-84
2021/10/28 08:38:00;;;;;;;12.38;9.25;;;11.80;99.90;;;;;;12311778;28;20054;-84
2021/10/28 08:44:02;;;;;;;13.15;9.60;;;12.10;99.90;;;;;;12309037;28;20149;-84
2021/10/28 08:50:09;;;;;;;11.32;8.00;;;12.30;99.90;;;;;;12308569;28;20058;-84
2021/10/28 08:56:36;;;;;;;14.60;9.43;;;12.50;99.90;;;;;;12326211;28;20412;-85
2021/10/28 09:28:25;;;;;;;13.13;9.52;;;12.60;99.90;;;;;;12313731;28;20519;-83
2021/10/28 09:34:37;;;;;;;12.63;9.55;;;12.80;99.90;;;;;;12343347;28;20099;-85
2021/10/28 09:47:41;;;;;;;11.48;8.73;;;13.10;99.90;;;;;;12310075;28;20062;-84
2021/10/28 09:54:00;;;;;;;11.32;8.27;;;13.20;99.90;;;;;;12307202;28;20133;-84
2021/10/28 10:00:04;;;;;;;12.05;8.05;;;13.40;99.90;;;;;;12305995;28;20086;-85
2021/10/28 10:06:12;;;;;;;10.03;7.53;;;13.60;99.90;;;;;;12310136;28;20051;-85
2021/10/28 10:12:15;;;;;;;11.10;7.10;;;14.00;99.90;;;;;;12310652;28;20054;-84
2021/10/28 10:18:20;;;;;;;12.43;7.20;;;14.20;99.90;;;;;;12307506;28;20046;-84
2021/10/28 10:24:46;;;;;;;9.05;6.20;;;14.30;99.90;;;;;;12343139;28;20047;-84
2021/10/28 11:22:42;;;;;;;5.95;3.88;;;15.80;99.90;;;;;;12304479;28;20472;-86
2021/10/28 12:45:41;;;;;;;5.07;2.78;;;16.90;99.90;;;;;;12304264;28;20059;-86
2021/10/28 13:04:18;;;;;;;4.38;2.53;;;16.60;99.90;;;;;;12311443;28;20097;-86
2021/10/28 13:36:15;;;;;;;3.88;2.53;;;16.40;99.90;;;;;;12303714;28;20299;-86
2021/10/28 13:48:52;;;;;;;3.70;1.95;;;16.20;99.90;;;;;;12311263;28;20053;-84
2021/10/28 14:32:59;;;;;;;4.53;1.80;;;15.60;99.90;;;;;;12306585;28;20117;-85
2021/10/28 15:36:09;;;;;;;4.90;2.10;;;14.70;99.90;;;;;;12310606;28;20149;-85
2021/10/28 15:42:37;;;;;;;3.72;2.05;;;14.50;99.90;;;;;;12300404;28;20503;-86
2021/10/28 16:26:36;;;;;;;6.43;3.63;;;13.80;99.90;;;;;;12306651;28;20405;-84
2021/10/28 16:32:38;;;;;;;6.13;3.90;;;13.70;99.90;;;;;;12314152;28;20054;-83
2021/10/28 16:38:41;;;;;;;6.28;3.58;;;13.60;99.90;;;;;;12314154;28;20157;-84
2021/10/28 16:44:45;;;;;;;5.18;3.50;;;13.60;99.90;;;;;;12312774;28;20063;-86
2021/10/28 16:50:47;;;;;;;10.07;3.78;;;13.40;99.90;;;;;;12308500;28;20050;-85
2021/10/28 16:56:49;;;;;;;6.28;3.30;;;13.40;99.90;;;;;;12317179;28;20137;-85
2021/10/28 17:02:51;;;;;;;6.38;3.33;;;13.40;99.90;;;;;;12312216;28;20051;-82
2021/10/28 17:08:56;;;;;;;6.07;3.50;;;13.30;99.90;;;;;;12327775;28;20085;-84
2021/10/28 17:14:58;;;;;;;6.07;3.97;;;13.20;99.90;;;;;;12309038;28;20097;-85
2021/10/28 17:21:04;;;;;;;7.38;3.78;;;13.00;99.90;;;;;;12312985;28;20054;-84
2021/10/28 17:27:06;;;;;;;6.50;4.10;;;12.90;99.90;;;;;;12309223;28;20054;-84
2021/10/28 17:33:09;;;;;;;6.45;3.78;;;12.80;99.90;;;;;;12339931;28;20426;-85
2021/10/28 17:39:10;;;;;;;6.30;4.28;;;12.70;99.90;;;;;;12308993;28;20137;-85
2021/10/28 17:45:13;;;;;;;7.53;4.50;;;12.60;99.90;;;;;;12305255;28;20067;-83
2021/10/28 17:51:17;;;;;;;7.35;4.40;;;12.60;99.90;;;;;;12304277;28;20500;-83
2021/10/28 17:57:18;;;;;;;8.65;4.78;;;12.50;99.90;;;;;;12307206;28;20057;-85
2021/10/28 18:03:23;;;;;;;7.47;4.90;;;12.50;99.90;;;;;;12304935;28;20074;-84
2021/10/28 18:09:26;;;;;;;;;;;12.30;99.90;;;;;;12307933;28;20542;-83
2021/10/28 18:15:29;;;;;;;8.45;4.97;;;12.40;99.90;;;;;;12306530;28;19972;-83
2021/10/28 18:21:31;;;;;;;9.32;5.10;;;12.30;99.90;;;;;;12303844;28;20055;-85
2021/10/28 18:27:33;;;;;;;8.02;5.63;;;12.20;99.90;;;;;;12309552;28;20054;-85
2021/10/28 18:33:35;;;;;;;9.63;6.07;;;12.10;99.90;;;;;;12333140;28;20050;-83
2021/10/28 18:39:40;;;;;;;9.07;6.22;;;11.90;99.90;;;;;;12309270;28;20057;-85
2021/10/28 18:45:43;;;;;;;8.80;6.40;;;11.90;99.90;;;;;;12306852;28;20806;-85
2021/10/28 18:51:47;;;;;;;9.88;6.80;;;11.80;99.90;;;;;;12297547;28;20047;-83
2021/10/28 18:57:49;;;;;;;9.93;7.63;;;11.50;99.90;;;;;;12305662;28;20537;-85
2021/10/28 19:03:53;;;;;;;10.20;7.70;;;11.30;99.90;;;;;;12304913;28;20089;-84
2021/10/28 19:09:55;;;;;;;10.27;7.50;;;11.20;99.90;;;;;;12307802;28;20611;-84
2021/10/28 19:15:58;;;;;;;12.20;8.00;;;11.10;99.90;;;;;;12346380;28;20769;-84
2021/10/28 19:22:00;;;;;;;12.65;9.05;;;11.00;99.90;;;;;;12306643;28;20589;-84
2021/10/28 19:28:02;;;;;;;12.75;9.43;;;10.80;99.90;;;;;;12305147;28;20047;-85
2021/10/28 19:34:05;;;;;;;14.82;10.18;;;10.70;99.90;;;;;;12304764;28;20092;-85
2021/10/28 19:46:14;;;;;;;19.92;13.45;;;10.30;99.90;;;;;;12307192;28;20344;-84
2021/10/28 19:52:16;;;;;;;19.87;14.47;;;9.90;99.90;;;;;;12302359;28;20050;-82
2021/10/28 19:58:22;;;;;;;24.67;15.38;;;9.80;99.90;;;;;;12339456;28;20061;-84
2021/10/28 20:04:52;;;;;;;23.80;16.05;;;9.50;99.90;;;;;;12309672;28;20121;-85
2021/10/28 20:23:36;;;;;;;26.75;16.92;;;9.20;99.90;;;;;;12310461;28;20153;-83
2021/10/28 20:29:38;;;;;;;27.92;18.55;;;9.00;99.90;;;;;;12314569;28;20472;-83
2021/10/28 20:35:55;;;;;;;26.42;17.58;;;9.00;99.90;;;;;;12311536;28;20129;-83
2021/10/28 20:41:57;;;;;;;23.63;16.15;;;9.00;99.90;;;;;;12314590;28;20051;-85
2021/10/28 20:47:59;;;;;;;25.63;16.83;;;8.90;99.90;;;;;;12310111;28;20090;-85
2021/10/28 20:54:01;;;;;;;26.58;15.35;;;9.00;99.90;;;;;;12324529;28;20050;-84
2021/10/28 21:00:07;;;;;;;22.30;16.17;;;9.10;99.90;;;;;;12311946;28;20128;-86
2021/10/28 21:06:10;;;;;;;24.85;14.88;;;9.20;99.90;;;;;;12309090;28;20146;-84
2021/10/28 21:12:11;;;;;;;22.90;15.30;;;9.40;99.90;;;;;;12308864;28;20102;-84
2021/10/28 21:18:14;;;;;;;19.80;13.98;;;9.40;99.90;;;;;;12308334;28;20051;-84
2021/10/28 21:24:16;;;;;;;21.70;14.25;;;9.30;99.90;;;;;;12310769;28;20437;-84
2021/10/28 21:30:18;;;;;;;20.27;13.98;;;9.70;99.90;;;;;;12311612;28;20062;-85
2021/10/28 21:36:20;;;;;;;20.85;13.52;;;9.50;99.90;;;;;;12327681;28;20242;-85
2021/10/28 21:42:23;;;;;;;19.50;13.52;;;9.40;99.90;;;;;;12312410;28;20042;-85
2021/10/28 21:48:31;;;;;;;17.15;12.10;;;9.30;99.90;;;;;;12312825;28;20053;-84
2021/10/28 21:54:40;;;;;;;17.17;11.33;;;9.00;99.90;;;;;;12313383;28;21377;-84
2021/10/28 22:26:00;;;;;;;15.38;10.70;;;8.90;99.90;;;;;;12307277;28;20109;-85
2021/10/28 22:32:04;;;;;;;16.08;11.18;;;8.90;99.90;;;;;;12304937;28;20101;-85
2021/10/28 22:38:08;;;;;;;;;;;9.00;99.90;;;;;;12296060;28;20050;-85
2021/10/28 22:44:10;;;;;;;17.92;10.73;;;9.00;99.90;;;;;;12308621;28;19952;-85
2021/10/28 22:50:12;;;;;;;16.90;10.75;;;9.00;99.90;;;;;;12302198;28;20538;-85
2021/10/28 22:56:14;;;;;;;18.75;10.93;;;9.00;99.90;;;;;;12302717;28;20467;-86
2021/10/28 23:02:34;;;;;;;14.55;9.68;;;8.90;99.90;;;;;;12297291;28;20177;-84
2021/10/28 23:21:10;;;;;;;16.85;10.43;;;9.10;99.90;;;;;;12309963;28;20050;-84
2021/10/28 23:27:12;;;;;;;18.15;10.80;;;8.90;99.90;;;;;;12301631;28;20057;-85
2021/10/28 23:33:14;;;;;;;22.90;11.20;;;8.90;99.90;;;;;;12307024;28;20423;-84
2021/10/28 23:39:16;;;;;;;16.15;11.50;;;9.00;99.90;;;;;;12296626;28;20117;-85
2021/10/28 23:45:18;;;;;;;19.20;12.13;;;8.90;99.90;;;;;;12302395;28;20158;-84
2021/10/28 23:51:20;;;;;;;18.05;11.85;;;8.80;99.90;;;;;;12301329;28;20058;-84
2021/10/28 23:57:22;;;;;;;23.33;12.75;;;8.70;99.90;;;;;;12301907;28;20111;-84
